Time;durP1;ratioP1;P1;durP2;ratioP2;P2;SDS_P1;SDS_P2;PMS_P1;PMS_P2;Temp;Humidity;BMP_temperature;BMP_pressure;BME280_temperature;BME280_humidity;BME280_pressure;Samples;Min_cycle;Max_cycle;Signal;HPM_P1;HPM_P2
2023/01/14 00:01:47;;;;;;;23.87;17.57;;;;;;;3.18;100.00;92983.44;5090967;28;20204;-81
2023/01/14 00:04:12;;;;;;;24.73;18.33;;;;;;;3.40;100.00;93036.06;5088113;28;20227;-80
2023/01/14 00:06:38;;;;;;;23.07;16.80;;;;;;;3.55;100.00;93046.69;5089267;28;20221;-81
2023/01/14 00:09:06;;;;;;;22.07;18.03;;;;;;;3.17;100.00;92966.41;5089553;28;20184;-80
2023/01/14 00:11:47;;;;;;;21.33;17.73;;;;;;;3.55;100.00;93031.22;5088905;28;20212;-81
2023/01/14 00:14:17;;;;;;;25.97;17.60;;;;;;;3.63;100.00;93056.69;5088065;28;20220;-82
2023/01/14 00:16:43;;;;;;;20.33;18.13;;;;;;;3.58;100.00;93023.03;5088626;28;20213;-81
2023/01/14 00:19:09;;;;;;;24.50;18.17;;;;;;;3.84;100.00;93048.38;5088737;28;20232;-81
2023/01/14 00:21:35;;;;;;;22.90;17.53;;;;;;;3.78;100.00;93040.75;5088439;28;20186;-82
2023/01/14 00:24:00;;;;;;;24.93;18.27;;;;;;;3.61;100.00;93037.28;5090038;28;20204;-81
2023/01/14 00:26:26;;;;;;;23.13;18.70;;;;;;;3.68;100.00;93037.94;5088202;28;20240;-82
2023/01/14 00:28:51;;;;;;;19.33;17.00;;;;;;;3.58;100.00;93019.69;5088488;28;20176;-81
2023/01/14 00:31:19;;;;;;;23.73;17.73;;;;;;;3.66;100.00;93033.00;5089644;28;20340;-82
2023/01/14 00:33:45;;;;;;;19.13;16.13;;;;;;;3.69;100.00;93027.38;5088656;28;20208;-81
2023/01/14 00:36:13;;;;;;;17.93;15.63;;;;;;;3.77;100.00;93034.78;5091107;28;20232;-82
2023/01/14 00:38:39;;;;;;;18.73;16.87;;;;;;;3.78;100.00;93031.22;5088159;28;20193;-81
2023/01/14 00:41:16;;;;;;;17.70;15.93;;;;;;;3.80;100.00;93024.00;5087348;28;20266;-81
2023/01/14 00:43:47;;;;;;;17.40;15.13;;;;;;;3.72;100.00;93021.78;5088451;28;20202;-81
2023/01/14 00:46:15;;;;;;;19.20;17.33;;;;;;;3.73;100.00;93028.53;5091811;28;20227;-81
2023/01/14 00:48:42;;;;;;;20.23;18.27;;;;;;;3.74;100.00;93029.28;5092965;28;20215;-81
2023/01/14 00:51:08;;;;;;;20.27;17.30;;;;;;;3.78;100.00;93031.22;5091811;28;20327;-81
2023/01/14 00:53:34;;;;;;;23.97;18.63;;;;;;;3.77;100.00;93021.88;5092564;28;20205;-81
2023/01/14 00:55:59;;;;;;;23.87;18.90;;;;;;;3.74;100.00;93012.00;5094350;28;20232;-81
2023/01/14 00:58:25;;;;;;;24.07;21.30;;;;;;;3.75;100.00;93028.28;5091253;28;20219;-81
2023/01/14 01:00:52;;;;;;;29.10;22.80;;;;;;;3.88;100.00;93025.44;5092721;28;20251;-81
2023/01/14 01:03:18;;;;;;;33.13;23.60;;;;;;;3.97;100.00;93032.63;5093190;28;20236;-81
2023/01/14 01:05:44;;;;;;;28.20;22.13;;;;;;;3.80;100.00;93020.66;5091679;28;20231;-81
2023/01/14 01:08:13;;;;;;;31.57;22.30;;;;;;;3.84;100.00;93034.69;5091041;28;20210;-81
2023/01/14 01:10:38;;;;;;;26.67;21.83;;;;;;;3.79;100.00;93027.63;5091605;28;20310;-81
2023/01/14 01:13:04;;;;;;;32.40;23.00;;;;;;;3.89;100.00;93032.97;5092837;28;20193;-81
2023/01/14 01:15:34;;;;;;;30.23;22.37;;;;;;;3.97;100.00;93030.03;5091308;28;20229;-80
2023/01/14 01:18:01;;;;;;;30.90;22.73;;;;;;;3.90;100.00;93024.22;5091133;28;20187;-81
2023/01/14 01:20:26;;;;;;;46.27;28.93;;;;;;;3.71;100.00;92994.41;5091787;28;20231;-81
2023/01/14 01:22:52;;;;;;;59.83;35.77;;;;;;;3.70;100.00;93018.66;5092581;28;20181;-81
2023/01/14 01:25:17;;;;;;;47.03;30.53;;;;;;;4.02;100.00;93022.41;5092207;28;20248;-80
2023/01/14 01:27:42;;;;;;;38.37;24.83;;;;;;;3.79;100.00;92999.22;5091967;28;20192;-81
2023/01/14 01:30:09;;;;;;;31.33;22.60;;;;;;;3.95;100.00;93021.75;5091686;28;20231;-81
2023/01/14 01:32:34;;;;;;;28.07;21.07;;;;;;;3.97;100.00;93019.72;5092059;28;20193;-81
2023/01/14 01:35:00;;;;;;;29.03;21.03;;;;;;;3.86;100.00;93017.94;5091767;28;20259;-81
2023/01/14 01:37:27;;;;;;;26.87;22.00;;;;;;;3.84;100.00;93004.47;5091022;28;20746;-82
2023/01/14 01:39:52;;;;;;;26.50;22.27;;;;;;;3.75;100.00;92998.06;5091673;28;20295;-80
2023/01/14 01:42:22;;;;;;;24.97;20.50;;;;;;;3.77;100.00;93008.97;5090149;28;20887;-81
2023/01/14 01:44:47;;;;;;;25.83;20.40;;;;;;;3.78;100.00;93007.97;5091064;28;21045;-81
2023/01/14 01:47:13;;;;;;;26.47;20.87;;;;;;;3.64;100.00;93005.84;5092024;28;20319;-81
2023/01/14 01:49:39;;;;;;;29.63;20.10;;;;;;;3.66;100.00;92996.88;5090750;28;20266;-82
2023/01/14 01:52:19;;;;;;;28.33;20.27;;;;;;;3.70;100.00;93008.31;5091635;28;20224;-81
2023/01/14 01:54:54;;;;;;;26.03;20.17;;;;;;;3.44;100.00;92998.47;5089630;28;20279;-81
2023/01/14 01:57:19;;;;;;;27.30;20.20;;;;;;;3.33;100.00;92981.22;5105078;28;20188;-81
2023/01/14 01:59:48;;;;;;;28.40;20.93;;;;;;;3.43;100.00;92990.94;5091672;28;20225;-82
2023/01/14 02:02:14;;;;;;;27.30;21.43;;;;;;;3.35;100.00;92971.44;5090534;28;20196;-81
2023/01/14 02:04:40;;;;;;;25.00;20.10;;;;;;;3.38;100.00;92976.13;5090411;28;20250;-81
2023/01/14 02:07:31;;;;;;;26.17;20.53;;;;;;;3.36;100.00;92980.75;5090940;28;20192;-81
2023/01/14 02:10:01;;;;;;;30.67;21.17;;;;;;;3.35;100.00;92993.88;5084451;28;20231;-81
2023/01/14 02:12:47;;;;;;;27.53;21.73;;;;;;;3.15;100.00;92971.00;5091661;28;20192;-81
2023/01/14 02:15:30;;;;;;;28.30;21.67;;;;;;;3.30;100.00;92990.16;5090190;28;20224;-82
2023/01/14 02:17:59;;;;;;;29.60;22.20;;;;;;;3.33;100.00;92996.69;5090555;28;20607;-81
2023/01/14 02:20:36;;;;;;;28.70;20.70;;;;;;;3.19;100.00;92979.88;5107193;28;20228;-81
2023/01/14 02:23:40;;;;;;;33.17;22.37;;;;;;;3.42;100.00;93000.50;5089694;28;20244;-81
2023/01/14 02:26:33;;;;;;;22.37;18.90;;;;;;;3.43;100.00;93002.06;5064920;28;20251;-81
2023/01/14 02:29:31;;;;;;;20.93;18.07;;;;;;;3.45;100.00;92991.50;5089688;28;20209;-81
2023/01/14 02:32:32;;;;;;;23.40;17.90;;;;;;;3.49;100.00;92998.56;5090758;28;20173;-81
2023/01/14 02:35:12;;;;;;;20.40;18.27;;;;;;;3.55;100.00;92995.09;5089477;28;20228;-81
2023/01/14 02:38:04;;;;;;;25.97;18.37;;;;;;;3.49;100.00;92990.81;5091073;28;20212;-80
2023/01/14 02:40:34;;;;;;;22.43;18.13;;;;;;;3.39;100.00;92989.84;5074114;28;20247;-81
2023/01/14 02:46:26;;;;;;;27.93;20.87;;;;;;;3.52;100.00;92984.44;5089883;28;20250;-81
2023/01/14 02:48:54;;;;;;;24.43;18.13;;;;;;;3.59;100.00;93001.38;5088738;28;20196;-81
2023/01/14 02:51:20;;;;;;;20.83;17.17;;;;;;;3.49;100.00;92988.25;5089036;28;20232;-82
2023/01/14 02:53:46;;;;;;;28.93;19.83;;;;;;;3.49;100.00;93003.72;5090242;28;20208;-81
2023/01/14 02:56:12;;;;;;;23.90;18.40;;;;;;;3.35;100.00;92958.53;5089939;28;20236;-80
2023/01/14 02:58:57;;;;;;;25.60;20.20;;;;;;;3.71;100.00;92994.41;5089845;28;20193;-82
2023/01/14 03:01:30;;;;;;;23.43;19.77;;;;;;;3.71;100.00;92993.59;5084715;28;20228;-81
2023/01/14 03:04:18;;;;;;;26.37;19.53;;;;;;;3.75;100.00;92980.00;5089690;28;20207;-82
2023/01/14 03:06:55;;;;;;;23.97;18.53;;;;;;;3.68;100.00;92994.84;5122925;28;20188;-82
2023/01/14 03:09:32;;;;;;;24.13;18.53;;;;;;;3.75;100.00;92994.72;5089242;28;20236;-81
2023/01/14 03:12:33;;;;;;;23.30;17.93;;;;;;;3.83;100.00;92989.22;5090371;28;20189;-82
2023/01/14 03:15:12;;;;;;;22.17;17.70;;;;;;;3.47;100.00;92992.84;5079336;28;20236;-82
2023/01/14 03:18:01;;;;;;;21.90;16.77;;;;;;;3.68;100.00;93001.81;5069633;28;20196;-82
2023/01/14 03:20:34;;;;;;;21.70;18.20;;;;;;;3.36;100.00;93001.41;5068694;28;20229;-80
2023/01/14 03:23:05;;;;;;;19.93;15.50;;;;;;;3.45;100.00;92979.41;5069010;28;20256;-80
2023/01/14 03:25:35;;;;;;;16.07;14.57;;;;;;;3.76;100.00;92976.44;5069413;28;20239;-80
2023/01/14 03:28:03;;;;;;;15.07;13.73;;;;;;;3.85;100.00;92987.97;5069362;28;20219;-78
2023/01/14 03:30:35;;;;;;;16.13;14.63;;;;;;;3.83;100.00;92986.63;5084663;28;20233;-78
2023/01/14 03:33:07;;;;;;;15.20;12.63;;;;;;;3.80;100.00;92987.88;5088050;28;20181;-79
2023/01/14 03:35:36;;;;;;;14.30;13.10;;;;;;;3.73;100.00;92961.41;5088927;28;20227;-73
2023/01/14 03:38:11;;;;;;;12.67;11.70;;;;;;;3.81;100.00;92979.13;5089510;28;20192;-74
2023/01/14 03:40:39;;;;;;;13.10;12.13;;;;;;;3.84;99.23;92988.19;5088975;28;20216;-80
2023/01/14 03:43:15;;;;;;;13.20;12.20;;;;;;;4.00;97.88;92983.09;5088614;28;20173;-78
2023/01/14 03:45:42;;;;;;;11.83;10.93;;;;;;;4.03;96.27;92992.19;5088052;28;20223;-79
2023/01/14 03:48:09;;;;;;;12.97;12.03;;;;;;;3.94;96.52;92981.44;5090523;28;20196;-79
2023/01/14 03:50:45;;;;;;;13.13;12.13;;;;;;;4.07;95.90;92983.75;5089313;28;20234;-79
2023/01/14 03:53:28;;;;;;;11.57;10.77;;;;;;;4.01;95.97;92974.34;5089982;28;20185;-81
2023/01/14 03:56:16;;;;;;;12.23;11.23;;;;;;;4.08;95.08;92992.28;5087580;28;20238;-80
2023/01/14 03:58:59;;;;;;;13.80;12.70;;;;;;;4.06;95.48;92995.09;5088568;28;20191;-79
2023/01/14 04:01:33;;;;;;;13.00;11.93;;;;;;;3.99;96.76;92991.84;5068878;28;20216;-81
2023/01/14 04:03:59;;;;;;;13.40;12.40;;;;;;;3.87;96.71;92978.22;5067873;28;20241;-78
2023/01/14 04:06:25;;;;;;;13.57;12.50;;;;;;;3.87;97.00;92964.50;5067076;28;20201;-78
2023/01/14 04:08:51;;;;;;;13.43;12.43;;;;;;;3.99;97.11;92994.44;5067877;28;20181;-78
2023/01/14 04:11:16;;;;;;;14.10;12.80;;;;;;;3.94;97.46;92980.66;5068808;28;20197;-79
2023/01/14 04:16:25;;;;;;;17.73;15.93;;;;;;;3.86;98.81;92958.53;5068075;28;20227;-78
2023/01/14 04:18:50;;;;;;;22.00;16.97;;;;;;;3.97;99.57;92980.97;5068736;28;20169;-78
2023/01/14 04:21:16;;;;;;;25.33;18.77;;;;;;;4.01;99.64;92976.94;5071937;28;20242;-78
2023/01/14 04:23:41;;;;;;;21.80;18.00;;;;;;;4.00;99.94;92977.91;5073038;28;20190;-78
2023/01/14 04:26:08;;;;;;;25.63;20.37;;;;;;;3.95;99.61;92954.59;5071264;28;20292;-79
2023/01/14 04:28:33;;;;;;;26.43;20.90;;;;;;;4.06;99.78;92981.41;5072945;28;20177;-78
2023/01/14 04:30:58;;;;;;;28.57;22.07;;;;;;;3.92;100.00;92955.03;5072487;28;20227;-79
2023/01/14 04:33:24;;;;;;;29.77;21.07;;;;;;;4.00;100.00;92983.09;5073043;28;20177;-78
2023/01/14 04:35:50;;;;;;;28.83;21.97;;;;;;;3.95;100.00;92970.09;5071390;28;20232;-79
2023/01/14 04:38:17;;;;;;;24.13;20.70;;;;;;;3.89;100.00;92976.16;5072844;28;20190;-80
2023/01/14 04:40:43;;;;;;;31.43;21.80;;;;;;;3.83;100.00;92966.75;5071124;28;20209;-80
2023/01/14 04:43:08;;;;;;;30.23;21.13;;;;;;;3.73;100.00;92961.41;5072702;28;20276;-80
2023/01/14 04:45:37;;;;;;;25.03;21.00;;;;;;;3.74;100.00;92960.38;5072119;28;20221;-80
2023/01/14 04:48:03;;;;;;;27.60;20.83;;;;;;;3.80;100.00;92967.19;5072705;28;20193;-79
2023/01/14 04:50:33;;;;;;;23.07;19.37;;;;;;;3.75;100.00;92961.16;5071770;28;20229;-79
2023/01/14 04:53:26;;;;;;;17.87;16.07;;;;;;;3.73;100.00;92971.72;5070786;28;20200;-77
2023/01/14 04:55:55;;;;;;;18.13;16.23;;;;;;;3.84;100.00;92967.53;5071625;28;20281;-79
2023/01/14 04:58:21;;;;;;;17.17;15.57;;;;;;;3.61;100.00;92960.63;5072874;28;20188;-79
2023/01/14 05:00:47;;;;;;;16.90;15.40;;;;;;;3.57;100.00;92956.94;5071760;28;20221;-79
2023/01/14 05:03:13;;;;;;;15.90;14.40;;;;;;;3.58;100.00;92950.75;5072983;28;20193;-79
2023/01/14 05:05:39;;;;;;;16.30;14.73;;;;;;;3.69;99.80;92975.00;5071195;28;20304;-79
2023/01/14 05:08:07;;;;;;;14.93;13.63;;;;;;;3.66;99.49;92976.22;5071341;28;20196;-79
2023/01/14 05:10:32;;;;;;;15.57;14.17;;;;;;;3.52;99.50;92968.97;5072439;28;20244;-80
2023/01/14 05:12:58;;;;;;;14.33;13.13;;;;;;;3.63;98.98;92971.50;5072205;28;20185;-78
2023/01/14 05:15:39;;;;;;;13.70;12.60;;;;;;;3.50;98.28;92961.44;5072168;28;20228;-79
2023/01/14 05:18:05;;;;;;;13.63;12.33;;;;;;;3.73;97.49;92982.06;5072119;28;20254;-79
2023/01/14 05:20:31;;;;;;;15.83;14.53;;;;;;;3.70;97.93;92982.50;5071700;28;20233;-80
2023/01/14 05:23:00;;;;;;;13.90;12.73;;;;;;;3.67;97.99;92982.97;5069696;28;20233;-79
2023/01/14 05:25:26;;;;;;;15.07;13.57;;;;;;;3.51;98.61;92973.34;5070891;28;20221;-79
2023/01/14 05:27:51;;;;;;;15.77;14.27;;;;;;;3.47;99.06;92961.88;5096854;28;20215;-79
2023/01/14 05:30:17;;;;;;;15.23;14.03;;;;;;;3.58;98.89;92984.31;5072141;28;20252;-79
2023/01/14 05:32:42;;;;;;;13.93;13.03;;;;;;;3.50;98.86;92971.78;5068971;28;21034;-80
2023/01/14 05:35:08;;;;;;;13.80;12.80;;;;;;;3.62;98.52;92985.44;5065787;28;20250;-81
2023/01/14 05:37:34;;;;;;;14.67;13.43;;;;;;;3.65;96.95;92984.19;5070678;28;20217;-81
2023/01/14 05:40:00;;;;;;;13.90;12.60;;;;;;;3.70;97.32;92992.84;5068713;28;20225;-81
2023/01/14 05:47:55;;;;;;;13.23;12.20;;;;;;;3.46;95.63;92965.47;5068874;28;20208;-83
2023/01/14 05:50:21;;;;;;;13.77;12.50;;;;;;;3.66;95.31;92991.69;5094615;28;20237;-84
2023/01/14 05:52:47;;;;;;;13.43;12.30;;;;;;;3.63;94.87;92981.06;5068271;28;20244;-83
2023/01/14 05:55:12;;;;;;;14.13;13.00;;;;;;;3.53;95.56;92973.09;5067920;28;20229;-82
2023/01/14 05:57:38;;;;;;;13.63;12.60;;;;;;;3.53;95.89;92971.31;5069768;28;20201;-81
2023/01/14 06:00:04;;;;;;;13.17;12.10;;;;;;;3.67;96.68;92993.28;5068575;28;20232;-83
2023/01/14 06:08:01;;;;;;;14.10;13.00;;;;;;;3.91;95.81;92994.78;5070703;28;20200;-82
2023/01/14 06:10:26;;;;;;;12.43;11.43;;;;;;;3.88;96.30;92989.28;5070248;28;20229;-82
2023/01/14 06:12:58;;;;;;;12.80;11.80;;;;;;;3.90;95.50;92993.25;5068359;28;20333;-82
2023/01/14 06:15:25;;;;;;;13.27;12.27;;;;;;;3.86;96.48;92984.38;5070815;28;20228;-79
2023/01/14 06:18:08;;;;;;;14.33;13.33;;;;;;;4.03;95.86;92995.53;5069988;28;20188;-80
2023/01/14 06:20:34;;;;;;;13.40;12.33;;;;;;;3.86;94.71;92966.28;5068880;28;20225;-80
2023/01/14 06:22:59;;;;;;;13.67;12.67;;;;;;;3.74;93.87;92972.50;5067534;28;20185;-83
2023/01/14 06:25:24;;;;;;;12.93;11.97;;;;;;;4.05;94.05;92993.53;5068420;28;20233;-82
2023/01/14 06:27:50;;;;;;;13.77;12.77;;;;;;;4.05;93.19;92978.03;5069342;28;20173;-80
2023/01/14 06:30:16;;;;;;;13.57;12.47;;;;;;;3.62;92.57;92962.19;5069081;28;20229;-84
2023/01/14 06:32:41;;;;;;;13.10;12.13;;;;;;;3.74;94.75;93000.88;5069283;28;21698;-80
2023/01/14 06:35:07;;;;;;;12.23;11.43;;;;;;;3.72;93.85;92995.19;5068593;28;20271;-79
2023/01/14 06:37:32;;;;;;;13.90;12.87;;;;;;;3.67;93.59;92957.16;5067306;28;20201;-80
2023/01/14 06:39:57;;;;;;;13.53;12.63;;;;;;;4.22;92.57;93002.13;5068963;28;20209;-85
2023/01/14 06:42:23;;;;;;;14.10;12.90;;;;;;;4.04;92.14;92999.72;5067775;28;20181;-78
2023/01/14 06:44:48;;;;;;;23.07;17.80;;;;;;;4.01;91.78;92982.09;5069015;28;20250;-76
2023/01/14 06:47:14;;;;;;;39.13;21.40;;;;;;;4.25;91.47;93004.25;5069594;28;20181;-78
2023/01/14 06:49:39;;;;;;;30.83;19.17;;;;;;;4.21;91.69;92999.75;5068814;28;20221;-75
2023/01/14 06:52:04;;;;;;;17.10;14.87;;;;;;;4.29;91.95;93001.97;5069394;28;20212;-75
2023/01/14 06:54:30;;;;;;;17.83;14.90;;;;;;;4.29;92.44;93007.94;5069213;28;20217;-73
2023/01/14 06:56:55;;;;;;;21.77;15.77;;;;;;;4.44;92.55;93010.81;5070090;28;20188;-75
2023/01/14 06:59:21;;;;;;;56.37;26.27;;;;;;;4.42;91.95;93007.66;5069517;28;20245;-77
2023/01/14 07:01:46;;;;;;;48.30;24.93;;;;;;;4.49;92.55;93012.69;5066401;28;20194;-80
2023/01/14 07:04:12;;;;;;;73.83;29.90;;;;;;;4.56;92.44;93008.94;5066500;28;20225;-76
2023/01/14 07:06:38;;;;;;;101.47;36.30;;;;;;;4.52;92.47;93013.03;5068218;28;20245;-72
2023/01/14 07:09:03;;;;;;;62.47;28.00;;;;;;;4.56;92.48;93006.34;5094894;28;20173;-77
2023/01/14 07:11:28;;;;;;;98.87;34.50;;;;;;;4.65;94.04;93010.13;5065315;28;20211;-71
2023/01/14 07:13:54;;;;;;;37.77;22.17;;;;;;;4.89;91.79;93019.34;5065838;28;20224;-74
2023/01/14 07:16:19;;;;;;;19.33;17.00;;;;;;;5.04;91.29;93023.19;5067884;28;20193;-74
2023/01/14 07:18:45;;;;;;;22.87;17.37;;;;;;;4.68;92.53;93019.25;5065787;28;20189;-73
2023/01/14 07:21:10;;;;;;;19.90;17.80;;;;;;;4.58;92.74;93026.81;5065974;28;20217;-73
2023/01/14 07:23:35;;;;;;;17.57;15.63;;;;;;;4.47;93.75;93031.00;5065323;28;20273;-73
2023/01/14 07:26:01;;;;;;;22.10;17.67;;;;;;;4.29;93.38;93002.78;5061655;28;20225;-73
2023/01/14 07:28:28;;;;;;;19.63;17.57;;;;;;;4.51;93.57;93024.34;5064336;28;20177;-73
2023/01/14 07:30:54;;;;;;;22.90;19.17;;;;;;;4.76;93.54;93040.31;5062673;28;20224;-73
2023/01/14 07:33:21;;;;;;;25.20;20.33;;;;;;;4.66;93.77;93034.19;5065337;28;20177;-73
2023/01/14 07:35:51;;;;;;;29.43;22.63;;;;;;;4.67;94.50;93046.88;5064483;28;20249;-73
2023/01/14 07:38:16;;;;;;;29.07;23.80;;;;;;;4.48;95.48;93036.97;5064496;28;20206;-73
2023/01/14 07:40:42;;;;;;;31.73;24.40;;;;;;;4.38;97.19;93032.41;5064717;28;20225;-73
2023/01/14 07:43:07;;;;;;;33.47;25.27;;;;;;;4.42;97.08;93041.25;5066574;28;20188;-73
2023/01/14 07:45:33;;;;;;;33.90;24.30;;;;;;;4.38;97.17;93031.59;5066811;28;20229;-75
2023/01/14 07:47:58;;;;;;;34.93;23.53;;;;;;;4.41;97.07;93024.19;5068491;28;20185;-75
2023/01/14 07:50:23;;;;;;;26.37;20.20;;;;;;;4.38;96.60;93036.78;5066082;28;20239;-71
2023/01/14 07:52:53;;;;;;;28.70;21.00;;;;;;;4.42;97.05;93043.84;5064659;28;20208;-70
2023/01/14 07:55:18;;;;;;;28.93;22.47;;;;;;;4.46;96.79;93026.88;5064843;28;20281;-71
2023/01/14 07:57:44;;;;;;;25.80;22.10;;;;;;;4.60;96.20;93046.25;5067130;28;20189;-71
2023/01/14 08:00:10;;;;;;;30.93;22.83;;;;;;;4.55;95.88;93040.19;5065810;28;20233;-71
2023/01/14 08:02:36;;;;;;;34.07;22.67;;;;;;;4.61;96.13;93049.63;5068133;28;20201;-72
2023/01/14 08:05:02;;;;;;;30.73;22.97;;;;;;;4.69;95.63;93046.66;5065028;28;20284;-71
2023/01/14 08:07:28;;;;;;;29.00;22.33;;;;;;;4.55;95.87;93048.75;5067638;28;20185;-71
2023/01/14 08:09:53;;;;;;;27.60;21.73;;;;;;;4.48;96.32;93042.91;5065823;28;20256;-72
2023/01/14 08:12:18;;;;;;;36.73;25.07;;;;;;;4.58;96.52;93050.06;5067293;28;20236;-73
2023/01/14 08:14:44;;;;;;;30.40;25.37;;;;;;;4.80;96.15;93053.56;5065863;28;20229;-72
2023/01/14 08:17:09;;;;;;;33.17;24.40;;;;;;;4.83;95.99;93051.31;5068296;28;20260;-72
2023/01/14 08:19:35;;;;;;;33.37;22.90;;;;;;;4.83;95.64;93056.50;5064097;28;20229;-72
2023/01/14 08:22:00;;;;;;;27.37;22.47;;;;;;;4.94;95.29;93058.25;5067583;28;20202;-71
2023/01/14 08:24:25;;;;;;;26.67;21.70;;;;;;;4.76;94.32;93011.09;5065890;28;20225;-73
2023/01/14 08:26:51;;;;;;;29.23;22.93;;;;;;;5.29;93.68;93067.59;5065333;28;20213;-73
2023/01/14 08:29:17;;;;;;;27.90;21.73;;;;;;;5.34;93.13;93078.03;5065778;28;20237;-72
2023/01/14 08:31:43;;;;;;;22.30;19.93;;;;;;;5.43;92.16;93058.50;5068976;28;20195;-71
2023/01/14 08:34:09;;;;;;;19.87;17.97;;;;;;;5.50;89.58;93072.06;5066728;28;20273;-72
2023/01/14 08:36:34;;;;;;;16.47;15.17;;;;;;;5.56;89.31;93065.94;5066871;28;20205;-72
2023/01/14 08:39:00;;;;;;;16.87;15.27;;;;;;;5.76;87.21;93074.03;5066808;28;20207;-73
2023/01/14 08:41:25;;;;;;;17.40;15.63;;;;;;;5.76;85.18;93081.78;5065720;28;20199;-73
2023/01/14 08:43:51;;;;;;;15.47;14.10;;;;;;;5.73;84.40;93083.03;5066629;28;20198;-73
2023/01/14 08:46:18;;;;;;;13.93;12.63;;;;;;;5.78;83.58;93077.13;5064173;28;20201;-71
2023/01/14 08:48:43;;;;;;;14.50;13.33;;;;;;;5.78;83.77;93071.97;5065493;28;20202;-73
2023/01/14 08:51:11;;;;;;;14.90;13.60;;;;;;;5.92;83.95;93088.78;5065232;28;20258;-74
2023/01/14 08:53:38;;;;;;;13.63;12.63;;;;;;;5.97;83.67;93083.66;5066214;28;20271;-73
2023/01/14 08:56:05;;;;;;;13.30;12.30;;;;;;;5.69;83.36;93088.94;5067091;28;20209;-74
2023/01/14 08:58:31;;;;;;;14.80;13.60;;;;;;;5.88;82.70;93087.69;5063696;28;20196;-74
2023/01/14 09:01:04;;;;;;;15.17;14.10;;;;;;;5.65;82.93;93080.06;5067657;28;20221;-74
2023/01/14 09:03:30;;;;;;;14.27;13.17;;;;;;;5.61;83.59;93076.38;5082812;28;20233;-74
2023/01/14 09:06:07;;;;;;;15.33;14.07;;;;;;;5.46;84.06;93068.38;5065828;28;20252;-73
2023/01/14 09:17:06;;;;;;;15.27;14.07;;;;;;;5.54;85.32;93055.81;5072738;28;20196;-74
2023/01/14 09:19:50;;;;;;;15.33;13.93;;;;;;;5.73;83.99;93057.13;5078742;28;20220;-75
2023/01/14 09:22:19;;;;;;;15.13;13.90;;;;;;;5.34;83.55;93050.34;5089686;28;20213;-76
2023/01/14 09:24:45;;;;;;;13.97;12.97;;;;;;;5.19;85.00;93055.28;5090451;28;20236;-76
2023/01/14 09:27:10;;;;;;;14.23;13.03;;;;;;;4.97;85.54;93046.63;5091333;28;20189;-74
2023/01/14 09:29:36;;;;;;;13.63;12.63;;;;;;;4.96;85.16;93038.06;5090117;28;20771;-76
2023/01/14 09:32:01;;;;;;;13.93;12.90;;;;;;;5.01;85.95;93054.72;5093188;28;20926;-76
2023/01/14 09:34:27;;;;;;;12.93;11.97;;;;;;;4.81;86.23;93037.03;5105741;28;20441;-75
2023/01/14 09:36:54;;;;;;;15.77;14.07;;;;;;;5.04;86.14;93049.88;5092091;28;20231;-73
2023/01/14 09:39:20;;;;;;;14.43;13.37;;;;;;;4.94;85.75;93022.03;5091313;28;20252;-72
2023/01/14 09:41:55;;;;;;;13.93;12.73;;;;;;;5.30;84.45;93046.66;5092575;28;20185;-72
2023/01/14 09:44:22;;;;;;;14.93;13.77;;;;;;;5.62;83.43;93039.88;5090592;28;20232;-72
2023/01/14 09:46:47;;;;;;;15.07;13.47;;;;;;;5.57;83.10;93037.22;5090823;28;20188;-71
2023/01/14 09:49:20;;;;;;;14.63;13.53;;;;;;;5.68;82.56;93045.94;5087360;28;20256;-74
2023/01/14 09:52:14;;;;;;;13.47;12.13;;;;;;;5.78;81.44;93043.47;5090752;28;20228;-74
2023/01/14 09:54:47;;;;;;;13.33;12.23;;;;;;;5.59;81.54;93039.56;5091115;28;21109;-73
2023/01/14 09:57:50;;;;;;;15.23;14.13;;;;;;;5.74;82.35;93042.38;5088166;28;20192;-73
2023/01/14 10:00:25;;;;;;;15.03;13.43;;;;;;;5.94;81.14;93037.50;5090610;28;20251;-74
2023/01/14 10:03:03;;;;;;;12.63;11.63;;;;;;;5.81;80.48;93022.25;5123439;27;20776;-74
2023/01/14 10:05:33;;;;;;;12.60;11.70;;;;;;;5.99;80.25;93030.56;5088659;28;20228;-72
2023/01/14 10:08:05;;;;;;;13.27;12.37;;;;;;;5.59;82.35;93036.97;5088009;28;20201;-73
2023/01/14 10:10:36;;;;;;;13.70;12.77;;;;;;;5.77;81.82;93034.94;5087385;28;20228;-73
2023/01/14 10:13:07;;;;;;;14.17;13.03;;;;;;;5.86;80.47;93017.19;5088149;28;20192;-73
2023/01/14 10:15:41;;;;;;;15.37;14.17;;;;;;;6.20;79.90;93040.16;5085169;28;20252;-73
2023/01/14 10:18:14;;;;;;;12.90;12.00;;;;;;;6.29;79.23;93030.16;5088099;28;20290;-73
2023/01/14 10:20:42;;;;;;;13.97;12.87;;;;;;;6.24;79.01;93024.94;5089627;28;20234;-73
2023/01/14 10:23:20;;;;;;;13.73;12.73;;;;;;;6.62;80.78;93026.63;5088888;28;20184;-73
2023/01/14 10:25:51;;;;;;;13.73;12.43;;;;;;;6.78;79.26;93029.13;5088349;28;20223;-74
2023/01/14 10:28:21;;;;;;;13.67;12.37;;;;;;;6.25;78.15;93019.50;5089455;28;20203;-78
2023/01/14 10:30:48;;;;;;;28.33;24.30;;;;;;;6.46;78.46;93033.47;5088740;28;20224;-75
2023/01/14 10:33:16;;;;;;;13.93;12.70;;;;;;;6.71;77.80;93033.72;5086108;28;20197;-76
2023/01/14 10:35:45;;;;;;;14.10;13.03;;;;;;;7.15;76.10;93024.81;5088097;28;20225;-76
2023/01/14 10:38:17;;;;;;;13.07;12.10;;;;;;;7.58;84.54;93013.44;5087272;28;20200;-75
2023/01/14 10:40:44;;;;;;;14.93;13.83;;;;;;;7.55;75.69;93014.72;5088248;28;20227;-74
2023/01/14 10:43:21;;;;;;;14.87;13.53;;;;;;;7.39;75.15;93018.22;5088807;28;20189;-75
2023/01/14 10:45:46;;;;;;;14.27;12.90;;;;;;;7.37;74.28;93017.72;5089572;28;20250;-76
2023/01/14 10:48:19;;;;;;;14.37;13.17;;;;;;;7.68;72.56;93011.69;5086727;28;20189;-76
2023/01/14 10:50:46;;;;;;;14.87;13.47;;;;;;;7.51;73.59;93018.84;5086438;28;20343;-75
2023/01/14 10:53:23;;;;;;;18.73;16.87;;;;;;;7.26;76.78;93010.88;5087663;28;20244;-75
2023/01/14 10:55:53;;;;;;;15.93;14.67;;;;;;;7.56;74.15;93015.50;5087938;28;20227;-75
2023/01/14 10:58:43;;;;;;;18.93;16.13;;;;;;;7.40;74.15;93011.22;5086364;28;20212;-75
2023/01/14 11:01:10;;;;;;;14.73;13.17;;;;;;;7.20;72.95;92923.59;5088607;28;20246;-75
2023/01/14 11:03:48;;;;;;;15.40;13.77;;;;;;;7.44;73.06;92981.91;5090015;28;20256;-75
2023/01/14 11:06:16;;;;;;;13.40;12.40;;;;;;;7.34;73.90;92994.84;5067979;28;20259;-75
2023/01/14 11:08:49;;;;;;;14.70;13.10;;;;;;;7.23;75.28;92995.00;5067724;28;20180;-77
2023/01/14 11:11:17;;;;;;;16.50;14.77;;;;;;;7.46;77.96;92986.84;5087489;28;20220;-73
2023/01/14 11:13:45;;;;;;;16.27;14.70;;;;;;;7.41;74.19;92976.44;5089475;28;20199;-74
2023/01/14 11:16:29;;;;;;;16.10;13.70;;;;;;;6.79;77.94;92991.78;5067610;28;20292;-75
2023/01/14 11:19:02;;;;;;;14.63;13.27;;;;;;;6.91;78.52;92995.00;5067876;28;20197;-76
2023/01/14 11:21:44;;;;;;;14.57;13.17;;;;;;;6.56;80.85;92986.88;5069280;28;20216;-75
2023/01/14 11:24:25;;;;;;;14.93;13.43;;;;;;;6.40;78.69;92991.13;5065194;28;20229;-76
2023/01/14 11:27:00;;;;;;;15.57;14.27;;;;;;;6.90;78.56;92996.03;5067400;28;20204;-74
2023/01/14 11:29:28;;;;;;;19.47;17.10;;;;;;;6.61;78.68;92994.72;5067468;28;20235;-74
2023/01/14 11:31:58;;;;;;;18.63;16.20;;;;;;;6.41;80.04;92981.56;5067740;28;20273;-74
2023/01/14 11:34:58;;;;;;;18.17;16.43;;;;;;;6.62;78.74;92998.88;5073512;28;20216;-75
2023/01/14 11:37:38;;;;;;;19.23;17.27;;;;;;;6.39;79.46;92999.16;5087892;28;20204;-73
2023/01/14 11:40:06;;;;;;;18.73;16.93;;;;;;;6.26;79.43;92989.16;5087849;28;20228;-73
2023/01/14 11:42:41;;;;;;;17.83;16.07;;;;;;;6.24;79.96;92996.41;5089779;28;20200;-73
2023/01/14 11:45:13;;;;;;;19.30;16.30;;;;;;;6.24;80.80;92993.81;5087835;28;20207;-87
2023/01/14 11:47:48;;;;;;;22.47;20.10;;;;;;;6.37;80.73;92993.44;5088373;28;20177;-82
2023/01/14 11:50:31;;;;;;;28.67;21.93;;;;;;;6.42;82.70;92998.69;5088770;28;20248;-81
2023/01/14 11:53:04;;;;;;;25.67;20.77;;;;;;;6.49;80.98;92999.25;5087939;28;20250;-81
2023/01/14 11:55:36;;;;;;;27.37;20.97;;;;;;;6.14;81.53;93004.84;5088309;28;20230;-81
2023/01/14 11:58:32;;;;;;;28.03;20.90;;;;;;;5.83;83.43;92984.78;5088486;28;20185;-81
2023/01/14 12:01:07;;;;;;;32.70;22.87;;;;;;;6.05;83.83;93002.91;5078563;28;20212;-81